Anamosa, Iowa
Current Conditions -  °F | °C
As of 2:15 PM on Thursday 23 Oct 2014 (Local Time) from KMXO Reporting Station
Overcast Overcast  
Wind Chill: 52°   Ceiling: 1300
Heat Index: 52°   Visibility: 10mi
Dew Point: 50°   Wind: 6mph
Humidity: 94%   Direction: 170°S
Pressure: 30.04"   Gusts: NA
Location:  42.11°N, 91.28°W
Report Text: KMXO 231915Z AUTO 17005KT 10SM OVC013 11/10 A3004 RMK AO2
Loading
Personal Weather Stations






























Interactive Weather Map
Tropical Storm Tracking
New forecast layout! Learn more

10-Day Weather Forecast

Advertisements
Track Severe Weather on mobile